Terminal Aerodrome Forecast
Issued by NWS Greer, SC

Home | Current Version | Previous Version | Text Only | Print | Product List | Glossary On
Versions: 1 2 3 4 5 6 7 8 9 10 11 12 13
975
FTUS42 KGSP 171740
TAFGSP
TAF
KGSP 171740Z 1718/1818 16004KT P6SM FEW250
     FM180300 VRB03KT P6SM FEW120 BKN250
     FM181100 21004KT P6SM SCT035 BKN120
     FM181400 21007KT P6SM BKN025=

USA.gov is the U.S. government's official web portal to all federal, state and local government web resources and services.